BGA192G LFBD-LFRZ
Flight info
| Callsign | BGA192G |
|---|---|
| Flight time | 0h 34m |
| Altitude | 20000 |
| Route | ROYAN6P ROYAN A25 PIQFU DCT RINED DCT NORMI |
| Aircraft | A337/H-SDE3GHIJ2J3J5M1RVWXY/LB2D1 |
Departure
| Time | 2026-04-30 13:00 |
|---|---|
| Airport | Bordeaux–Mérignac Airport (LFBD) |
Arrival
| Time | 2026-04-30 13:35 |
|---|---|
| Airport | Saint-Nazaire-Montoir Airport (LFRZ) |
| Time | Latitude | Longitude | Altitude | Speed | Heading |
|---|---|---|---|---|---|
| 2026-04-30 12:29 | 44.84117 | -0.71230 | 165 ft | 1 kts | 72° |
| 2026-04-30 12:29 | 44.84121 | -0.71221 | 166 ft | 1 kts | 58° |
| 2026-04-30 12:29 | 44.84124 | -0.71215 | 166 ft | 0 kts | 53° |
| 2026-04-30 12:36 | 44.84124 | -0.71216 | 166 ft | 0 kts | 53° |
| 2026-04-30 12:45 | 44.84124 | -0.71215 | 167 ft | 0 kts | 53° |
| 2026-04-30 12:49 | 44.84137 | -0.71191 | 168 ft | 9 kts | 53° |
| 2026-04-30 12:49 | 44.84155 | -0.71085 | 169 ft | 13 kts | 117° |
| 2026-04-30 12:50 | 44.84071 | -0.70990 | 169 ft | 18 kts | 143° |
| 2026-04-30 12:50 | 44.83999 | -0.70905 | 169 ft | 10 kts | 125° |
| 2026-04-30 12:50 | 44.84015 | -0.70795 | 169 ft | 15 kts | 67° |
| 2026-04-30 12:50 | 44.84062 | -0.70637 | 169 ft | 20 kts | 68° |
| 2026-04-30 12:51 | 44.84110 | -0.70471 | 169 ft | 11 kts | 68° |
| 2026-04-30 12:51 | 44.84136 | -0.70364 | 169 ft | 13 kts | 80° |
| 2026-04-30 12:51 | 44.84084 | -0.70267 | 171 ft | 15 kts | 155° |
| 2026-04-30 12:51 | 44.84016 | -0.70226 | 170 ft | 7 kts | 156° |
| 2026-04-30 12:52 | 44.84007 | -0.70220 | 170 ft | 0 kts | 157° |
| 2026-04-30 12:53 | 44.83990 | -0.70210 | 171 ft | 8 kts | 157° |
| 2026-04-30 12:53 | 44.83920 | -0.70167 | 172 ft | 12 kts | 156° |
| 2026-04-30 12:53 | 44.83857 | -0.70137 | 170 ft | 10 kts | 178° |
| 2026-04-30 12:54 | 44.83805 | -0.70191 | 167 ft | 6 kts | 226° |
| 2026-04-30 12:54 | 44.83802 | -0.70195 | 167 ft | 0 kts | 226° |
| 2026-04-30 12:54 | 44.83736 | -0.70290 | 167 ft | 46 kts | 226° |
| 2026-04-30 12:54 | 44.83368 | -0.70818 | 172 ft | 69 kts | 226° |
| 2026-04-30 12:55 | 44.83184 | -0.71081 | 171 ft | 30 kts | 226° |
| 2026-04-30 12:55 | 44.83085 | -0.71221 | 167 ft | 11 kts | 223° |
| 2026-04-30 12:55 | 44.83011 | -0.71230 | 165 ft | 13 kts | 142° |
| 2026-04-30 12:55 | 44.82977 | -0.71104 | 165 ft | 14 kts | 108° |
| 2026-04-30 12:56 | 44.82957 | -0.70987 | 168 ft | 11 kts | 86° |
| 2026-04-30 12:56 | 44.82998 | -0.70894 | 170 ft | 14 kts | 46° |
| 2026-04-30 12:56 | 44.83077 | -0.70782 | 170 ft | 18 kts | 45° |
| 2026-04-30 12:56 | 44.83172 | -0.70647 | 170 ft | 21 kts | 45° |
| 2026-04-30 12:57 | 44.83275 | -0.70499 | 169 ft | 22 kts | 45° |
| 2026-04-30 12:57 | 44.83392 | -0.70334 | 169 ft | 25 kts | 46° |
| 2026-04-30 12:57 | 44.83505 | -0.70170 | 169 ft | 16 kts | 45° |
| 2026-04-30 12:57 | 44.83583 | -0.70059 | 169 ft | 13 kts | 45° |
| 2026-04-30 12:58 | 44.83638 | -0.70003 | 169 ft | 7 kts | 18° |
| 2026-04-30 12:58 | 44.83683 | -0.70019 | 169 ft | 6 kts | 336° |
| 2026-04-30 12:58 | 44.83697 | -0.70027 | 167 ft | 0 kts | 336° |
| 2026-04-30 12:59 | 44.83720 | -0.70042 | 166 ft | 12 kts | 336° |
| 2026-04-30 12:59 | 44.83803 | -0.70124 | 168 ft | 16 kts | 292° |
| 2026-04-30 12:59 | 44.83737 | -0.70288 | 168 ft | 34 kts | 225° |
| 2026-04-30 13:00 | 44.83385 | -0.70790 | 172 ft | 109 kts | 225° |
| 2026-04-30 13:00 | 44.82707 | -0.71764 | 389 ft | 158 kts | 225° |
| 2026-04-30 13:00 | 44.81919 | -0.72922 | 1198 ft | 166 kts | 224° |
| 2026-04-30 13:00 | 44.81080 | -0.74113 | 2127 ft | 180 kts | 225° |
| 2026-04-30 13:01 | 44.80130 | -0.75447 | 2558 ft | 209 kts | 224° |
| 2026-04-30 13:01 | 44.79056 | -0.77022 | 2886 ft | 235 kts | 229° |
| 2026-04-30 13:01 | 44.78278 | -0.79110 | 3515 ft | 248 kts | 255° |
| 2026-04-30 13:01 | 44.78349 | -0.81568 | 4297 ft | 261 kts | 287° |
| 2026-04-30 13:02 | 44.79396 | -0.83676 | 5046 ft | 275 kts | 320° |
| 2026-04-30 13:02 | 44.81176 | -0.84701 | 5897 ft | 283 kts | 354° |
| 2026-04-30 13:02 | 44.83140 | -0.84505 | 6846 ft | 284 kts | 9° |
| 2026-04-30 13:02 | 44.85098 | -0.84008 | 7749 ft | 288 kts | 11° |
| 2026-04-30 13:03 | 44.87087 | -0.83503 | 8668 ft | 291 kts | 10° |
| 2026-04-30 13:03 | 44.89102 | -0.83028 | 9577 ft | 295 kts | 9° |
| 2026-04-30 13:03 | 44.91156 | -0.82573 | 10373 ft | 302 kts | 9° |
| 2026-04-30 13:03 | 44.93282 | -0.82200 | 10748 ft | 322 kts | 3° |
| 2026-04-30 13:04 | 44.95576 | -0.82179 | 11239 ft | 335 kts | 359° |
| 2026-04-30 13:04 | 44.97946 | -0.82277 | 11901 ft | 342 kts | 358° |
| 2026-04-30 13:04 | 45.00343 | -0.82392 | 12633 ft | 346 kts | 358° |
| 2026-04-30 13:04 | 45.02761 | -0.82505 | 13392 ft | 350 kts | 358° |
| 2026-04-30 13:05 | 45.05181 | -0.82615 | 14117 ft | 354 kts | 359° |
| 2026-04-30 13:05 | 45.07660 | -0.82725 | 14757 ft | 358 kts | 359° |
| 2026-04-30 13:05 | 45.10174 | -0.82840 | 15374 ft | 363 kts | 358° |
| 2026-04-30 13:06 | 45.15216 | -0.84167 | 16620 ft | 373 kts | 346° |
| 2026-04-30 13:06 | 45.17730 | -0.85116 | 17221 ft | 377 kts | 346° |
| 2026-04-30 13:06 | 45.20277 | -0.86087 | 17830 ft | 380 kts | 346° |
| 2026-04-30 13:06 | 45.22821 | -0.87053 | 18455 ft | 383 kts | 346° |
| 2026-04-30 13:07 | 45.25417 | -0.88034 | 18960 ft | 387 kts | 347° |
| 2026-04-30 13:07 | 45.28041 | -0.89024 | 19491 ft | 390 kts | 347° |
| 2026-04-30 13:07 | 45.30682 | -0.90020 | 19921 ft | 392 kts | 347° |
| 2026-04-30 13:07 | 45.33284 | -0.91001 | 20063 ft | 392 kts | 347° |
| 2026-04-30 13:08 | 45.35932 | -0.92000 | 20072 ft | 393 kts | 347° |
| 2026-04-30 13:08 | 45.38585 | -0.93001 | 20065 ft | 394 kts | 347° |
| 2026-04-30 13:08 | 45.41232 | -0.94002 | 20068 ft | 393 kts | 347° |
| 2026-04-30 13:08 | 45.43875 | -0.95002 | 20069 ft | 393 kts | 347° |
| 2026-04-30 13:09 | 45.46522 | -0.96004 | 20072 ft | 393 kts | 347° |
| 2026-04-30 13:09 | 45.49145 | -0.96998 | 20071 ft | 393 kts | 347° |
| 2026-04-30 13:09 | 45.51792 | -0.98001 | 20071 ft | 393 kts | 347° |
| 2026-04-30 13:09 | 45.54444 | -0.99008 | 20073 ft | 393 kts | 347° |
| 2026-04-30 13:10 | 45.57055 | -1.00001 | 20069 ft | 393 kts | 347° |
| 2026-04-30 13:10 | 45.59694 | -1.01004 | 20067 ft | 392 kts | 347° |
| 2026-04-30 13:10 | 45.62342 | -1.02013 | 20069 ft | 392 kts | 347° |
| 2026-04-30 13:10 | 45.64977 | -1.03017 | 20072 ft | 392 kts | 347° |
| 2026-04-30 13:11 | 45.67618 | -1.04020 | 20071 ft | 392 kts | 347° |
| 2026-04-30 13:11 | 45.70265 | -1.05018 | 20072 ft | 392 kts | 347° |
| 2026-04-30 13:11 | 45.72866 | -1.05994 | 20074 ft | 392 kts | 347° |
| 2026-04-30 13:11 | 45.75539 | -1.06992 | 20072 ft | 392 kts | 347° |
| 2026-04-30 13:12 | 45.78142 | -1.07962 | 20071 ft | 392 kts | 347° |
| 2026-04-30 13:12 | 45.80785 | -1.08947 | 20064 ft | 392 kts | 347° |
| 2026-04-30 13:12 | 45.83434 | -1.09937 | 20073 ft | 392 kts | 347° |
| 2026-04-30 13:13 | 45.88712 | -1.11916 | 20073 ft | 392 kts | 347° |
| 2026-04-30 13:13 | 45.91313 | -1.12893 | 20072 ft | 392 kts | 347° |
| 2026-04-30 13:13 | 45.96596 | -1.14880 | 20065 ft | 391 kts | 347° |
| 2026-04-30 13:14 | 45.99231 | -1.15870 | 20070 ft | 392 kts | 347° |
| 2026-04-30 13:14 | 46.01880 | -1.16863 | 20078 ft | 392 kts | 347° |
| 2026-04-30 13:14 | 46.07161 | -1.18845 | 20073 ft | 392 kts | 347° |
| 2026-04-30 13:15 | 46.09797 | -1.19835 | 20083 ft | 391 kts | 347° |
| 2026-04-30 13:15 | 46.14748 | -1.22952 | 20075 ft | 392 kts | 330° |
| 2026-04-30 13:15 | 46.17086 | -1.25020 | 20067 ft | 393 kts | 328° |
| 2026-04-30 13:16 | 46.19363 | -1.27196 | 20074 ft | 392 kts | 326° |
| 2026-04-30 13:16 | 46.21613 | -1.29429 | 20072 ft | 392 kts | 326° |
| 2026-04-30 13:16 | 46.23862 | -1.31685 | 20055 ft | 393 kts | 326° |
| 2026-04-30 13:17 | 46.28259 | -1.36081 | 19631 ft | 373 kts | 326° |
| 2026-04-30 13:17 | 46.30370 | -1.38174 | 19324 ft | 361 kts | 326° |
| 2026-04-30 13:17 | 46.33827 | -1.41584 | 18550 ft | 361 kts | 326° |
| 2026-04-30 13:18 | 46.36575 | -1.44289 | 17873 ft | 358 kts | 325° |
| 2026-04-30 13:18 | 46.40666 | -1.48319 | 16981 ft | 351 kts | 325° |
| 2026-04-30 13:18 | 46.42677 | -1.50304 | 16527 ft | 347 kts | 325° |
| 2026-04-30 13:19 | 46.44649 | -1.52253 | 16113 ft | 349 kts | 325° |
| 2026-04-30 13:19 | 46.46701 | -1.54284 | 15858 ft | 363 kts | 325° |
| 2026-04-30 13:19 | 46.48805 | -1.56368 | 15661 ft | 367 kts | 325° |
| 2026-04-30 13:19 | 46.50901 | -1.58445 | 15312 ft | 361 kts | 325° |
| 2026-04-30 13:20 | 46.52961 | -1.60489 | 14611 ft | 358 kts | 325° |
| 2026-04-30 13:20 | 46.55025 | -1.62537 | 13906 ft | 356 kts | 325° |
| 2026-04-30 13:20 | 46.57032 | -1.64532 | 13182 ft | 352 kts | 325° |
| 2026-04-30 13:20 | 46.59038 | -1.66528 | 12595 ft | 347 kts | 325° |
| 2026-04-30 13:21 | 46.61009 | -1.68491 | 12161 ft | 338 kts | 325° |
| 2026-04-30 13:21 | 46.62924 | -1.70407 | 11697 ft | 330 kts | 324° |
| 2026-04-30 13:21 | 46.64657 | -1.72527 | 11289 ft | 323 kts | 317° |
| 2026-04-30 13:22 | 46.67906 | -1.77036 | 10457 ft | 321 kts | 314° |
| 2026-04-30 13:22 | 46.69447 | -1.79297 | 10272 ft | 305 kts | 314° |
| 2026-04-30 13:22 | 46.72253 | -1.83468 | 10067 ft | 279 kts | 314° |
| 2026-04-30 13:23 | 46.73626 | -1.85512 | 9726 ft | 284 kts | 313° |
| 2026-04-30 13:23 | 46.76373 | -1.89586 | 9028 ft | 280 kts | 313° |
| 2026-04-30 13:24 | 46.79098 | -1.93612 | 8357 ft | 277 kts | 313° |
| 2026-04-30 13:24 | 46.81775 | -1.97566 | 7698 ft | 273 kts | 313° |
| 2026-04-30 13:25 | 46.84443 | -2.01512 | 7034 ft | 270 kts | 313° |
| 2026-04-30 13:25 | 46.87065 | -2.05400 | 6379 ft | 267 kts | 313° |
| 2026-04-30 13:26 | 46.91616 | -2.10445 | 5353 ft | 276 kts | 333° |
| 2026-04-30 13:26 | 46.95110 | -2.12694 | 4628 ft | 276 kts | 337° |
| 2026-04-30 13:27 | 46.98735 | -2.14810 | 4097 ft | 283 kts | 338° |
| 2026-04-30 13:28 | 47.03585 | -2.17692 | 3567 ft | 281 kts | 337° |
| 2026-04-30 13:28 | 47.07117 | -2.19839 | 3107 ft | 268 kts | 336° |
| 2026-04-30 13:28 | 47.09363 | -2.21214 | 2819 ft | 254 kts | 336° |
| 2026-04-30 13:29 | 47.11968 | -2.22812 | 2642 ft | 229 kts | 336° |
| 2026-04-30 13:29 | 47.14707 | -2.24494 | 2397 ft | 203 kts | 336° |
| 2026-04-30 13:30 | 47.18425 | -2.26401 | 1854 ft | 178 kts | 354° |
| 2026-04-30 13:31 | 47.20752 | -2.25953 | 1776 ft | 163 kts | 16° |
| 2026-04-30 13:31 | 47.23739 | -2.24105 | 1417 ft | 150 kts | 26° |
| 2026-04-30 13:32 | 47.25651 | -2.22931 | 1253 ft | 150 kts | 22° |
| 2026-04-30 13:32 | 47.27535 | -2.21940 | 1071 ft | 139 kts | 19° |
| 2026-04-30 13:33 | 47.29343 | -2.20985 | 783 ft | 137 kts | 37° |
| 2026-04-30 13:33 | 47.30400 | -2.18835 | 434 ft | 125 kts | 77° |
| 2026-04-30 13:34 | 47.30640 | -2.17656 | 306 ft | 116 kts | 76° |
| 2026-04-30 13:34 | 47.31259 | -2.14720 | 28 ft | 54 kts | 71° |
| 2026-04-30 13:35 | 47.31321 | -2.14411 | 27 ft | 28 kts | 75° |
| 2026-04-30 13:35 | 47.31450 | -2.13763 | 25 ft | 37 kts | 72° |
| 2026-04-30 13:36 | 47.31563 | -2.13415 | 28 ft | 5 kts | 111° |
| 2026-04-30 13:36 | 47.31544 | -2.13410 | 30 ft | 4 kts | 182° |
| 2026-04-30 13:36 | 47.31488 | -2.13588 | 27 ft | 17 kts | 252° |
| 2026-04-30 13:37 | 47.31448 | -2.13784 | 23 ft | 23 kts | 252° |
| 2026-04-30 13:37 | 47.31340 | -2.14319 | 24 ft | 31 kts | 254° |
| 2026-04-30 13:38 | 47.31211 | -2.14954 | 27 ft | 34 kts | 251° |
| 2026-04-30 13:38 | 47.31146 | -2.15302 | 29 ft | 35 kts | 252° |
| 2026-04-30 13:38 | 47.31174 | -2.15727 | 27 ft | 22 kts | 342° |
| 2026-04-30 13:39 | 47.31346 | -2.15941 | 26 ft | 9 kts | 271° |
| 2026-04-30 13:39 | 47.31356 | -2.16077 | 27 ft | 6 kts | 12° |
| 2026-04-30 13:40 | 47.31387 | -2.16079 | 28 ft | 3 kts | 345° |
| 2026-04-30 13:40 | 47.31396 | -2.16083 | 28 ft | 0 kts | 342° |
| 2026-04-30 13:43 | 47.31395 | -2.16083 | 28 ft | 0 kts | 342° |